sensor_id;sensor_type;location;lat;lon;timestamp;P1;durP1;ratioP1;P2;durP2;ratioP2
69985;SDS011;57328;52.054;5.294;2023-06-26T00:00:31;11.65;;;7.53;;
69985;SDS011;57328;52.054;5.294;2023-06-26T00:02:59;10.90;;;6.70;;
69985;SDS011;57328;52.054;5.294;2023-06-26T00:05:26;9.85;;;6.43;;
69985;SDS011;57328;52.054;5.294;2023-06-26T00:07:54;10.38;;;6.25;;
69985;SDS011;57328;52.054;5.294;2023-06-26T00:10:23;10.52;;;6.60;;
69985;SDS011;57328;52.054;5.294;2023-06-26T00:12:50;11.43;;;6.55;;
69985;SDS011;57328;52.054;5.294;2023-06-26T00:15:18;12.18;;;6.90;;
69985;SDS011;57328;52.054;5.294;2023-06-26T00:17:45;11.65;;;7.00;;
69985;SDS011;57328;52.054;5.294;2023-06-26T00:20:12;10.45;;;7.20;;
69985;SDS011;57328;52.054;5.294;2023-06-26T00:25:08;11.50;;;7.30;;
69985;SDS011;57328;52.054;5.294;2023-06-26T00:27:35;12.57;;;6.82;;
69985;SDS011;57328;52.054;5.294;2023-06-26T00:32:30;9.80;;;6.88;;
69985;SDS011;57328;52.054;5.294;2023-06-26T00:34:57;11.02;;;7.22;;
69985;SDS011;57328;52.054;5.294;2023-06-26T00:37:24;10.70;;;7.03;;
69985;SDS011;57328;52.054;5.294;2023-06-26T00:39:52;11.88;;;7.30;;
69985;SDS011;57328;52.054;5.294;2023-06-26T00:42:19;13.27;;;7.70;;
69985;SDS011;57328;52.054;5.294;2023-06-26T00:44:46;11.15;;;7.32;;
69985;SDS011;57328;52.054;5.294;2023-06-26T00:47:14;11.00;;;6.88;;
69985;SDS011;57328;52.054;5.294;2023-06-26T00:49:42;12.13;;;7.18;;
69985;SDS011;57328;52.054;5.294;2023-06-26T00:59:09;11.05;;;7.35;;
69985;SDS011;57328;52.054;5.294;2023-06-26T01:01:36;11.18;;;6.95;;
69985;SDS011;57328;52.054;5.294;2023-06-26T01:04:04;11.90;;;7.15;;
69985;SDS011;57328;52.054;5.294;2023-06-26T01:06:31;14.43;;;7.07;;
69985;SDS011;57328;52.054;5.294;2023-06-26T01:09:02;11.15;;;6.93;;
69985;SDS011;57328;52.054;5.294;2023-06-26T01:11:30;11.65;;;7.00;;
69985;SDS011;57328;52.054;5.294;2023-06-26T01:13:57;9.60;;;5.80;;
69985;SDS011;57328;52.054;5.294;2023-06-26T01:16:26;9.88;;;5.90;;
69985;SDS011;57328;52.054;5.294;2023-06-26T01:18:54;10.55;;;5.85;;
69985;SDS011;57328;52.054;5.294;2023-06-26T01:21:23;12.23;;;5.90;;
69985;SDS011;57328;52.054;5.294;2023-06-26T01:24:15;11.40;;;5.40;;
69985;SDS011;57328;52.054;5.294;2023-06-26T01:26:48;8.73;;;4.88;;
69985;SDS011;57328;52.054;5.294;2023-06-26T01:29:16;10.02;;;5.40;;
69985;SDS011;57328;52.054;5.294;2023-06-26T01:31:47;10.15;;;5.85;;
69985;SDS011;57328;52.054;5.294;2023-06-26T01:34:16;9.02;;;4.65;;
69985;SDS011;57328;52.054;5.294;2023-06-26T01:36:44;10.93;;;5.22;;
69985;SDS011;57328;52.054;5.294;2023-06-26T01:39:14;11.07;;;5.88;;
69985;SDS011;57328;52.054;5.294;2023-06-26T01:41:42;8.48;;;4.50;;
69985;SDS011;57328;52.054;5.294;2023-06-26T01:44:11;10.20;;;4.38;;
69985;SDS011;57328;52.054;5.294;2023-06-26T01:46:46;10.68;;;4.22;;
69985;SDS011;57328;52.054;5.294;2023-06-26T01:52:49;9.68;;;4.18;;
69985;SDS011;57328;52.054;5.294;2023-06-26T01:57:32;9.68;;;3.83;;
69985;SDS011;57328;52.054;5.294;2023-06-26T02:00:01;9.32;;;4.10;;
69985;SDS011;57328;52.054;5.294;2023-06-26T02:02:29;8.52;;;4.28;;
69985;SDS011;57328;52.054;5.294;2023-06-26T02:04:57;11.85;;;4.32;;
69985;SDS011;57328;52.054;5.294;2023-06-26T02:07:24;9.35;;;4.35;;
69985;SDS011;57328;52.054;5.294;2023-06-26T02:13:21;10.38;;;3.97;;
69985;SDS011;57328;52.054;5.294;2023-06-26T02:19:18;10.60;;;3.53;;
69985;SDS011;57328;52.054;5.294;2023-06-26T02:21:51;11.52;;;4.25;;
69985;SDS011;57328;52.054;5.294;2023-06-26T02:24:18;11.02;;;3.50;;
69985;SDS011;57328;52.054;5.294;2023-06-26T02:26:45;10.23;;;3.28;;
69985;SDS011;57328;52.054;5.294;2023-06-26T02:29:12;10.23;;;3.72;;
69985;SDS011;57328;52.054;5.294;2023-06-26T02:31:39;10.95;;;3.53;;
69985;SDS011;57328;52.054;5.294;2023-06-26T02:34:07;10.27;;;3.30;;
69985;SDS011;57328;52.054;5.294;2023-06-26T02:36:34;10.52;;;3.60;;
69985;SDS011;57328;52.054;5.294;2023-06-26T02:39:01;10.38;;;3.42;;
69985;SDS011;57328;52.054;5.294;2023-06-26T02:41:29;11.88;;;3.47;;
69985;SDS011;57328;52.054;5.294;2023-06-26T02:43:56;10.40;;;3.30;;
69985;SDS011;57328;52.054;5.294;2023-06-26T02:46:23;8.00;;;3.58;;
69985;SDS011;57328;52.054;5.294;2023-06-26T02:48:50;11.68;;;4.00;;
69985;SDS011;57328;52.054;5.294;2023-06-26T02:51:18;9.98;;;4.15;;
69985;SDS011;57328;52.054;5.294;2023-06-26T02:53:45;9.18;;;4.00;;
69985;SDS011;57328;52.054;5.294;2023-06-26T02:56:12;10.10;;;3.78;;
69985;SDS011;57328;52.054;5.294;2023-06-26T02:58:39;14.27;;;4.13;;
69985;SDS011;57328;52.054;5.294;2023-06-26T03:01:06;11.10;;;3.70;;
69985;SDS011;57328;52.054;5.294;2023-06-26T03:03:34;10.98;;;3.88;;
69985;SDS011;57328;52.054;5.294;2023-06-26T03:06:07;10.27;;;3.25;;
69985;SDS011;57328;52.054;5.294;2023-06-26T03:08:36;12.38;;;3.60;;
69985;SDS011;57328;52.054;5.294;2023-06-26T03:11:03;14.48;;;4.10;;
69985;SDS011;57328;52.054;5.294;2023-06-26T03:13:31;12.75;;;3.75;;
69985;SDS011;57328;52.054;5.294;2023-06-26T03:15:59;12.40;;;3.83;;
69985;SDS011;57328;52.054;5.294;2023-06-26T03:18:26;11.63;;;3.88;;
69985;SDS011;57328;52.054;5.294;2023-06-26T03:20:54;13.85;;;4.05;;
69985;SDS011;57328;52.054;5.294;2023-06-26T03:23:23;14.30;;;4.25;;
69985;SDS011;57328;52.054;5.294;2023-06-26T03:25:51;11.50;;;3.72;;
69985;SDS011;57328;52.054;5.294;2023-06-26T03:28:18;14.23;;;4.20;;
69985;SDS011;57328;52.054;5.294;2023-06-26T03:30:45;16.27;;;4.03;;
69985;SDS011;57328;52.054;5.294;2023-06-26T03:33:13;11.85;;;4.32;;
69985;SDS011;57328;52.054;5.294;2023-06-26T03:35:42;13.40;;;3.72;;
69985;SDS011;57328;52.054;5.294;2023-06-26T03:38:09;17.45;;;4.40;;
69985;SDS011;57328;52.054;5.294;2023-06-26T03:40:36;10.65;;;3.70;;
69985;SDS011;57328;52.054;5.294;2023-06-26T03:43:04;12.93;;;4.05;;
69985;SDS011;57328;52.054;5.294;2023-06-26T03:45:31;10.52;;;4.22;;
69985;SDS011;57328;52.054;5.294;2023-06-26T03:47:58;15.10;;;3.92;;
69985;SDS011;57328;52.054;5.294;2023-06-26T03:50:26;13.18;;;4.05;;
69985;SDS011;57328;52.054;5.294;2023-06-26T03:52:53;10.70;;;3.47;;
69985;SDS011;57328;52.054;5.294;2023-06-26T03:55:21;15.05;;;3.88;;
69985;SDS011;57328;52.054;5.294;2023-06-26T03:57:49;11.00;;;3.90;;
69985;SDS011;57328;52.054;5.294;2023-06-26T04:00:17;12.23;;;4.13;;
69985;SDS011;57328;52.054;5.294;2023-06-26T04:02:44;17.17;;;4.22;;
69985;SDS011;57328;52.054;5.294;2023-06-26T04:05:11;13.70;;;3.63;;
69985;SDS011;57328;52.054;5.294;2023-06-26T04:07:39;14.00;;;3.67;;
69985;SDS011;57328;52.054;5.294;2023-06-26T04:10:06;13.32;;;3.65;;
69985;SDS011;57328;52.054;5.294;2023-06-26T04:12:33;12.82;;;4.25;;
69985;SDS011;57328;52.054;5.294;2023-06-26T04:15:00;10.48;;;3.97;;
69985;SDS011;57328;52.054;5.294;2023-06-26T04:17:28;12.30;;;3.60;;
69985;SDS011;57328;52.054;5.294;2023-06-26T04:19:56;12.23;;;4.22;;
69985;SDS011;57328;52.054;5.294;2023-06-26T04:22:23;14.13;;;4.03;;
69985;SDS011;57328;52.054;5.294;2023-06-26T04:24:51;12.63;;;3.83;;
69985;SDS011;57328;52.054;5.294;2023-06-26T04:27:19;12.30;;;3.53;;
69985;SDS011;57328;52.054;5.294;2023-06-26T04:29:47;12.75;;;3.60;;
69985;SDS011;57328;52.054;5.294;2023-06-26T04:32:15;8.63;;;3.58;;
69985;SDS011;57328;52.054;5.294;2023-06-26T04:34:42;11.50;;;3.47;;
69985;SDS011;57328;52.054;5.294;2023-06-26T04:37:09;13.80;;;3.72;;
69985;SDS011;57328;52.054;5.294;2023-06-26T04:39:37;13.10;;;3.60;;
69985;SDS011;57328;52.054;5.294;2023-06-26T04:42:04;9.27;;;3.70;;
69985;SDS011;57328;52.054;5.294;2023-06-26T04:44:33;12.38;;;3.28;;
69985;SDS011;57328;52.054;5.294;2023-06-26T04:47:00;11.75;;;3.50;;
69985;SDS011;57328;52.054;5.294;2023-06-26T04:49:27;14.90;;;3.90;;
69985;SDS011;57328;52.054;5.294;2023-06-26T04:51:54;10.85;;;3.20;;
69985;SDS011;57328;52.054;5.294;2023-06-26T04:54:23;11.65;;;3.10;;
69985;SDS011;57328;52.054;5.294;2023-06-26T04:56:50;8.15;;;3.08;;
69985;SDS011;57328;52.054;5.294;2023-06-26T04:59:17;12.82;;;3.10;;
69985;SDS011;57328;52.054;5.294;2023-06-26T05:01:44;7.32;;;2.85;;
69985;SDS011;57328;52.054;5.294;2023-06-26T05:04:15;11.35;;;3.45;;
69985;SDS011;57328;52.054;5.294;2023-06-26T05:06:42;11.57;;;2.78;;
69985;SDS011;57328;52.054;5.294;2023-06-26T05:09:10;9.45;;;2.90;;
69985;SDS011;57328;52.054;5.294;2023-06-26T05:11:37;13.15;;;3.20;;
69985;SDS011;57328;52.054;5.294;2023-06-26T05:14:05;9.70;;;2.80;;
69985;SDS011;57328;52.054;5.294;2023-06-26T05:16:33;8.90;;;2.78;;
69985;SDS011;57328;52.054;5.294;2023-06-26T05:19:01;9.55;;;3.15;;
69985;SDS011;57328;52.054;5.294;2023-06-26T05:21:28;8.07;;;2.80;;
69985;SDS011;57328;52.054;5.294;2023-06-26T05:23:56;7.43;;;2.53;;
69985;SDS011;57328;52.054;5.294;2023-06-26T05:26:25;8.43;;;2.70;;
69985;SDS011;57328;52.054;5.294;2023-06-26T05:28:52;6.25;;;2.42;;
69985;SDS011;57328;52.054;5.294;2023-06-26T05:31:21;9.82;;;2.70;;
69985;SDS011;57328;52.054;5.294;2023-06-26T05:33:48;8.65;;;2.58;;
69985;SDS011;57328;52.054;5.294;2023-06-26T05:36:16;6.88;;;2.50;;
69985;SDS011;57328;52.054;5.294;2023-06-26T05:38:45;6.93;;;2.40;;
69985;SDS011;57328;52.054;5.294;2023-06-26T05:41:13;6.15;;;2.28;;
69985;SDS011;57328;52.054;5.294;2023-06-26T05:43:40;8.57;;;2.55;;
69985;SDS011;57328;52.054;5.294;2023-06-26T05:46:07;8.35;;;2.58;;
69985;SDS011;57328;52.054;5.294;2023-06-26T05:48:34;5.75;;;2.40;;
69985;SDS011;57328;52.054;5.294;2023-06-26T05:51:02;6.65;;;2.35;;
69985;SDS011;57328;52.054;5.294;2023-06-26T05:53:30;8.93;;;2.40;;
69985;SDS011;57328;52.054;5.294;2023-06-26T05:55:57;6.45;;;2.40;;
69985;SDS011;57328;52.054;5.294;2023-06-26T05:58:26;6.15;;;2.03;;
69985;SDS011;57328;52.054;5.294;2023-06-26T06:00:57;6.40;;;2.53;;
69985;SDS011;57328;52.054;5.294;2023-06-26T06:03:24;8.30;;;2.40;;
69985;SDS011;57328;52.054;5.294;2023-06-26T06:05:52;5.57;;;2.67;;
69985;SDS011;57328;52.054;5.294;2023-06-26T06:08:19;6.35;;;2.03;;
69985;SDS011;57328;52.054;5.294;2023-06-26T06:10:46;6.13;;;2.30;;
69985;SDS011;57328;52.054;5.294;2023-06-26T06:13:14;6.70;;;2.35;;
69985;SDS011;57328;52.054;5.294;2023-06-26T06:15:42;7.30;;;2.35;;
69985;SDS011;57328;52.054;5.294;2023-06-26T06:18:09;7.07;;;2.35;;
69985;SDS011;57328;52.054;5.294;2023-06-26T06:20:36;8.38;;;2.40;;
69985;SDS011;57328;52.054;5.294;2023-06-26T06:25:32;7.20;;;2.22;;
69985;SDS011;57328;52.054;5.294;2023-06-26T06:27:59;9.30;;;2.50;;
69985;SDS011;57328;52.054;5.294;2023-06-26T06:30:26;6.20;;;2.45;;
69985;SDS011;57328;52.054;5.294;2023-06-26T06:33:09;5.75;;;2.00;;
69985;SDS011;57328;52.054;5.294;2023-06-26T06:35:37;8.18;;;2.35;;
69985;SDS011;57328;52.054;5.294;2023-06-26T06:38:04;4.30;;;2.13;;
69985;SDS011;57328;52.054;5.294;2023-06-26T06:40:31;6.30;;;2.45;;
69985;SDS011;57328;52.054;5.294;2023-06-26T06:42:58;5.95;;;2.33;;
69985;SDS011;57328;52.054;5.294;2023-06-26T06:45:26;6.45;;;2.10;;
69985;SDS011;57328;52.054;5.294;2023-06-26T06:47:54;6.10;;;2.20;;
69985;SDS011;57328;52.054;5.294;2023-06-26T06:53:52;6.20;;;2.30;;
69985;SDS011;57328;52.054;5.294;2023-06-26T06:56:20;5.18;;;2.20;;
69985;SDS011;57328;52.054;5.294;2023-06-26T06:58:48;7.28;;;2.33;;
69985;SDS011;57328;52.054;5.294;2023-06-26T07:01:15;7.68;;;2.30;;
69985;SDS011;57328;52.054;5.294;2023-06-26T07:03:43;6.53;;;2.28;;
69985;SDS011;57328;52.054;5.294;2023-06-26T07:06:10;7.88;;;2.60;;
69985;SDS011;57328;52.054;5.294;2023-06-26T07:08:44;8.13;;;2.10;;
69985;SDS011;57328;52.054;5.294;2023-06-26T07:11:11;5.15;;;2.30;;
69985;SDS011;57328;52.054;5.294;2023-06-26T07:13:38;6.38;;;2.40;;
69985;SDS011;57328;52.054;5.294;2023-06-26T07:16:06;6.68;;;2.40;;
69985;SDS011;57328;52.054;5.294;2023-06-26T07:18:33;6.22;;;2.40;;
69985;SDS011;57328;52.054;5.294;2023-06-26T07:21:01;7.35;;;2.60;;
69985;SDS011;57328;52.054;5.294;2023-06-26T07:23:28;8.05;;;2.50;;
69985;SDS011;57328;52.054;5.294;2023-06-26T07:25:55;7.60;;;2.47;;
69985;SDS011;57328;52.054;5.294;2023-06-26T07:28:23;4.63;;;2.10;;
69985;SDS011;57328;52.054;5.294;2023-06-26T07:30:52;6.95;;;2.50;;
69985;SDS011;57328;52.054;5.294;2023-06-26T07:33:19;10.82;;;2.50;;
69985;SDS011;57328;52.054;5.294;2023-06-26T07:35:47;9.13;;;2.42;;
69985;SDS011;57328;52.054;5.294;2023-06-26T07:38:14;8.50;;;2.38;;
69985;SDS011;57328;52.054;5.294;2023-06-26T07:40:41;8.20;;;2.38;;
69985;SDS011;57328;52.054;5.294;2023-06-26T07:43:09;7.72;;;2.42;;
69985;SDS011;57328;52.054;5.294;2023-06-26T07:45:38;7.25;;;2.30;;
69985;SDS011;57328;52.054;5.294;2023-06-26T07:48:05;8.07;;;2.10;;
69985;SDS011;57328;52.054;5.294;2023-06-26T07:50:35;6.95;;;2.00;;
69985;SDS011;57328;52.054;5.294;2023-06-26T07:53:05;6.28;;;1.90;;
69985;SDS011;57328;52.054;5.294;2023-06-26T07:55:32;6.20;;;2.20;;
69985;SDS011;57328;52.054;5.294;2023-06-26T07:57:59;8.48;;;2.00;;
69985;SDS011;57328;52.054;5.294;2023-06-26T08:00:28;6.15;;;2.10;;
69985;SDS011;57328;52.054;5.294;2023-06-26T08:02:55;6.07;;;2.05;;
69985;SDS011;57328;52.054;5.294;2023-06-26T08:05:23;7.75;;;2.30;;
69985;SDS011;57328;52.054;5.294;2023-06-26T08:07:51;7.03;;;1.98;;
69985;SDS011;57328;52.054;5.294;2023-06-26T08:10:19;7.13;;;2.15;;
69985;SDS011;57328;52.054;5.294;2023-06-26T08:12:46;8.70;;;2.53;;
69985;SDS011;57328;52.054;5.294;2023-06-26T08:15:15;6.05;;;2.05;;
69985;SDS011;57328;52.054;5.294;2023-06-26T08:17:42;5.00;;;1.85;;
69985;SDS011;57328;52.054;5.294;2023-06-26T08:20:12;7.20;;;2.33;;
69985;SDS011;57328;52.054;5.294;2023-06-26T08:22:39;8.25;;;2.05;;
69985;SDS011;57328;52.054;5.294;2023-06-26T08:25:07;7.50;;;1.60;;
69985;SDS011;57328;52.054;5.294;2023-06-26T08:27:35;11.18;;;2.15;;
69985;SDS011;57328;52.054;5.294;2023-06-26T08:30:02;8.90;;;1.67;;
69985;SDS011;57328;52.054;5.294;2023-06-26T08:32:31;7.32;;;1.50;;
69985;SDS011;57328;52.054;5.294;2023-06-26T08:34:58;5.30;;;1.55;;
69985;SDS011;57328;52.054;5.294;2023-06-26T08:37:25;6.18;;;1.60;;
69985;SDS011;57328;52.054;5.294;2023-06-26T08:39:53;10.18;;;1.70;;
69985;SDS011;57328;52.054;5.294;2023-06-26T08:42:21;6.78;;;1.70;;
69985;SDS011;57328;52.054;5.294;2023-06-26T08:44:49;8.30;;;1.55;;
69985;SDS011;57328;52.054;5.294;2023-06-26T08:47:27;6.13;;;1.38;;
69985;SDS011;57328;52.054;5.294;2023-06-26T08:55:22;6.18;;;1.70;;
69985;SDS011;57328;52.054;5.294;2023-06-26T08:57:51;7.70;;;1.48;;
69985;SDS011;57328;52.054;5.294;2023-06-26T09:00:19;3.35;;;1.20;;
69985;SDS011;57328;52.054;5.294;2023-06-26T09:02:47;6.25;;;1.13;;
69985;SDS011;57328;52.054;5.294;2023-06-26T09:05:14;6.70;;;1.52;;
69985;SDS011;57328;52.054;5.294;2023-06-26T09:07:42;5.93;;;1.70;;
69985;SDS011;57328;52.054;5.294;2023-06-26T09:10:09;6.68;;;1.38;;
69985;SDS011;57328;52.054;5.294;2023-06-26T09:12:37;5.90;;;1.52;;
69985;SDS011;57328;52.054;5.294;2023-06-26T09:15:05;5.95;;;1.30;;
69985;SDS011;57328;52.054;5.294;2023-06-26T09:17:34;5.60;;;1.67;;
69985;SDS011;57328;52.054;5.294;2023-06-26T09:20:06;4.30;;;1.60;;
69985;SDS011;57328;52.054;5.294;2023-06-26T09:22:37;5.43;;;1.23;;
69985;SDS011;57328;52.054;5.294;2023-06-26T09:25:05;5.80;;;1.58;;
69985;SDS011;57328;52.054;5.294;2023-06-26T09:27:34;6.85;;;1.42;;
69985;SDS011;57328;52.054;5.294;2023-06-26T09:30:03;4.20;;;1.33;;
69985;SDS011;57328;52.054;5.294;2023-06-26T09:32:41;6.20;;;1.95;;
69985;SDS011;57328;52.054;5.294;2023-06-26T09:35:23;7.30;;;1.45;;
69985;SDS011;57328;52.054;5.294;2023-06-26T09:37:51;6.15;;;1.38;;
69985;SDS011;57328;52.054;5.294;2023-06-26T09:40:18;6.20;;;1.45;;
69985;SDS011;57328;52.054;5.294;2023-06-26T09:42:46;5.35;;;1.50;;
69985;SDS011;57328;52.054;5.294;2023-06-26T09:45:17;6.75;;;1.55;;
69985;SDS011;57328;52.054;5.294;2023-06-26T09:47:45;3.78;;;1.52;;
69985;SDS011;57328;52.054;5.294;2023-06-26T09:50:22;4.72;;;1.30;;
69985;SDS011;57328;52.054;5.294;2023-06-26T09:52:52;5.88;;;1.58;;
69985;SDS011;57328;52.054;5.294;2023-06-26T09:55:19;4.47;;;1.50;;
69985;SDS011;57328;52.054;5.294;2023-06-26T09:57:50;5.18;;;1.40;;
69985;SDS011;57328;52.054;5.294;2023-06-26T10:00:20;4.60;;;1.42;;
69985;SDS011;57328;52.054;5.294;2023-06-26T10:02:48;5.32;;;1.15;;
69985;SDS011;57328;52.054;5.294;2023-06-26T10:08:02;3.75;;;1.40;;
69985;SDS011;57328;52.054;5.294;2023-06-26T10:13:37;3.88;;;1.30;;
69985;SDS011;57328;52.054;5.294;2023-06-26T10:16:08;2.33;;;0.95;;
69985;SDS011;57328;52.054;5.294;2023-06-26T10:18:38;6.20;;;1.30;;
69985;SDS011;57328;52.054;5.294;2023-06-26T10:21:06;6.93;;;1.20;;
69985;SDS011;57328;52.054;5.294;2023-06-26T10:23:34;4.05;;;1.00;;
69985;SDS011;57328;52.054;5.294;2023-06-26T10:29:05;3.20;;;1.10;;
69985;SDS011;57328;52.054;5.294;2023-06-26T10:31:35;4.00;;;1.38;;
69985;SDS011;57328;52.054;5.294;2023-06-26T10:34:04;2.08;;;0.75;;
69985;SDS011;57328;52.054;5.294;2023-06-26T10:36:32;3.60;;;1.17;;
69985;SDS011;57328;52.054;5.294;2023-06-26T10:39:03;5.53;;;1.30;;
69985;SDS011;57328;52.054;5.294;2023-06-26T10:41:38;6.07;;;1.30;;
69985;SDS011;57328;52.054;5.294;2023-06-26T10:44:22;4.32;;;1.10;;
69985;SDS011;57328;52.054;5.294;2023-06-26T10:46:50;2.83;;;1.10;;
69985;SDS011;57328;52.054;5.294;2023-06-26T10:49:20;4.80;;;1.15;;
69985;SDS011;57328;52.054;5.294;2023-06-26T10:51:48;4.32;;;1.30;;
69985;SDS011;57328;52.054;5.294;2023-06-26T10:54:16;3.40;;;1.40;;
69985;SDS011;57328;52.054;5.294;2023-06-26T10:56:47;5.75;;;1.40;;
69985;SDS011;57328;52.054;5.294;2023-06-26T10:59:16;3.97;;;1.40;;
69985;SDS011;57328;52.054;5.294;2023-06-26T11:01:44;5.05;;;1.27;;
69985;SDS011;57328;52.054;5.294;2023-06-26T11:04:13;2.17;;;0.90;;
69985;SDS011;57328;52.054;5.294;2023-06-26T11:06:44;3.85;;;1.23;;
69985;SDS011;57328;52.054;5.294;2023-06-26T11:09:13;5.40;;;1.30;;
69985;SDS011;57328;52.054;5.294;2023-06-26T11:14:22;8.38;;;1.38;;
69985;SDS011;57328;52.054;5.294;2023-06-26T11:16:49;4.65;;;1.30;;
69985;SDS011;57328;52.054;5.294;2023-06-26T11:19:17;2.85;;;1.13;;
69985;SDS011;57328;52.054;5.294;2023-06-26T11:24:32;2.30;;;0.80;;
69985;SDS011;57328;52.054;5.294;2023-06-26T11:27:00;4.05;;;1.35;;
69985;SDS011;57328;52.054;5.294;2023-06-26T11:29:30;3.97;;;1.23;;
69985;SDS011;57328;52.054;5.294;2023-06-26T11:31:58;4.40;;;1.08;;
69985;SDS011;57328;52.054;5.294;2023-06-26T11:34:30;9.30;;;1.33;;
69985;SDS011;57328;52.054;5.294;2023-06-26T11:36:58;4.50;;;1.10;;
69985;SDS011;57328;52.054;5.294;2023-06-26T11:39:27;3.10;;;1.10;;
69985;SDS011;57328;52.054;5.294;2023-06-26T11:41:55;1.75;;;0.75;;
69985;SDS011;57328;52.054;5.294;2023-06-26T11:44:22;1.52;;;0.88;;
69985;SDS011;57328;52.054;5.294;2023-06-26T11:46:53;4.47;;;1.15;;
69985;SDS011;57328;52.054;5.294;2023-06-26T11:49:22;2.40;;;1.10;;
69985;SDS011;57328;52.054;5.294;2023-06-26T11:51:52;3.92;;;1.27;;
69985;SDS011;57328;52.054;5.294;2023-06-26T11:54:24;3.63;;;1.00;;
69985;SDS011;57328;52.054;5.294;2023-06-26T11:56:55;6.00;;;1.30;;
69985;SDS011;57328;52.054;5.294;2023-06-26T11:59:24;3.08;;;0.98;;
69985;SDS011;57328;52.054;5.294;2023-06-26T12:01:51;3.28;;;1.00;;
69985;SDS011;57328;52.054;5.294;2023-06-26T12:04:20;4.88;;;0.90;;
69985;SDS011;57328;52.054;5.294;2023-06-26T12:06:50;2.28;;;0.90;;
69985;SDS011;57328;52.054;5.294;2023-06-26T12:09:18;3.83;;;0.80;;
69985;SDS011;57328;52.054;5.294;2023-06-26T12:11:51;2.42;;;0.77;;
69985;SDS011;57328;52.054;5.294;2023-06-26T12:14:20;2.28;;;0.95;;
69985;SDS011;57328;52.054;5.294;2023-06-26T12:16:52;2.45;;;0.93;;
69985;SDS011;57328;52.054;5.294;2023-06-26T12:19:24;3.53;;;1.00;;
69985;SDS011;57328;52.054;5.294;2023-06-26T12:24:42;5.25;;;1.00;;
69985;SDS011;57328;52.054;5.294;2023-06-26T12:27:17;4.70;;;1.10;;
69985;SDS011;57328;52.054;5.294;2023-06-26T12:29:50;3.50;;;0.80;;
69985;SDS011;57328;52.054;5.294;2023-06-26T12:32:22;2.45;;;0.88;;
69985;SDS011;57328;52.054;5.294;2023-06-26T12:34:51;6.15;;;0.80;;
69985;SDS011;57328;52.054;5.294;2023-06-26T12:37:20;2.60;;;0.80;;
69985;SDS011;57328;52.054;5.294;2023-06-26T12:39:51;4.05;;;0.90;;
69985;SDS011;57328;52.054;5.294;2023-06-26T12:42:20;5.80;;;0.88;;
69985;SDS011;57328;52.054;5.294;2023-06-26T12:44:48;2.88;;;0.80;;
69985;SDS011;57328;52.054;5.294;2023-06-26T12:50:44;3.03;;;1.17;;
69985;SDS011;57328;52.054;5.294;2023-06-26T12:53:12;3.38;;;0.90;;
69985;SDS011;57328;52.054;5.294;2023-06-26T12:55:40;4.10;;;1.30;;
69985;SDS011;57328;52.054;5.294;2023-06-26T12:58:11;3.97;;;1.05;;
69985;SDS011;57328;52.054;5.294;2023-06-26T13:00:38;4.30;;;1.00;;
69985;SDS011;57328;52.054;5.294;2023-06-26T13:03:07;4.55;;;1.00;;
69985;SDS011;57328;52.054;5.294;2023-06-26T13:05:37;3.58;;;0.93;;
69985;SDS011;57328;52.054;5.294;2023-06-26T13:08:10;4.63;;;0.90;;
69985;SDS011;57328;52.054;5.294;2023-06-26T13:10:38;4.95;;;1.25;;
69985;SDS011;57328;52.054;5.294;2023-06-26T13:13:06;4.68;;;0.95;;
69985;SDS011;57328;52.054;5.294;2023-06-26T13:15:37;4.90;;;1.00;;
69985;SDS011;57328;52.054;5.294;2023-06-26T13:18:04;2.55;;;0.90;;
69985;SDS011;57328;52.054;5.294;2023-06-26T13:20:32;3.10;;;0.85;;
69985;SDS011;57328;52.054;5.294;2023-06-26T13:22:59;3.53;;;0.85;;
69985;SDS011;57328;52.054;5.294;2023-06-26T13:25:26;3.78;;;0.90;;
69985;SDS011;57328;52.054;5.294;2023-06-26T13:27:53;2.53;;;0.90;;
69985;SDS011;57328;52.054;5.294;2023-06-26T13:30:21;3.95;;;1.00;;
69985;SDS011;57328;52.054;5.294;2023-06-26T13:32:49;3.95;;;0.90;;
69985;SDS011;57328;52.054;5.294;2023-06-26T13:35:16;3.90;;;0.98;;
69985;SDS011;57328;52.054;5.294;2023-06-26T13:37:44;2.30;;;1.00;;
69985;SDS011;57328;52.054;5.294;2023-06-26T13:40:13;4.30;;;1.10;;
69985;SDS011;57328;52.054;5.294;2023-06-26T13:42:40;5.15;;;1.10;;
69985;SDS011;57328;52.054;5.294;2023-06-26T13:45:08;3.67;;;0.73;;
69985;SDS011;57328;52.054;5.294;2023-06-26T13:47:52;1.85;;;0.75;;
69985;SDS011;57328;52.054;5.294;2023-06-26T13:50:21;4.32;;;1.13;;
69985;SDS011;57328;52.054;5.294;2023-06-26T13:52:48;3.17;;;1.00;;
69985;SDS011;57328;52.054;5.294;2023-06-26T13:55:17;1.88;;;0.93;;
69985;SDS011;57328;52.054;5.294;2023-06-26T13:57:44;3.58;;;0.85;;
69985;SDS011;57328;52.054;5.294;2023-06-26T14:00:13;2.25;;;0.75;;
69985;SDS011;57328;52.054;5.294;2023-06-26T14:02:42;3.45;;;0.80;;
69985;SDS011;57328;52.054;5.294;2023-06-26T14:05:09;4.53;;;1.02;;
69985;SDS011;57328;52.054;5.294;2023-06-26T14:07:38;2.88;;;0.90;;
69985;SDS011;57328;52.054;5.294;2023-06-26T14:10:05;3.30;;;0.77;;
69985;SDS011;57328;52.054;5.294;2023-06-26T14:12:34;5.95;;;0.90;;
69985;SDS011;57328;52.054;5.294;2023-06-26T14:15:03;3.60;;;0.90;;
69985;SDS011;57328;52.054;5.294;2023-06-26T14:17:31;1.63;;;0.60;;
69985;SDS011;57328;52.054;5.294;2023-06-26T14:19:58;2.78;;;0.95;;
69985;SDS011;57328;52.054;5.294;2023-06-26T14:22:25;3.92;;;1.17;;
69985;SDS011;57328;52.054;5.294;2023-06-26T14:24:53;4.85;;;1.02;;
69985;SDS011;57328;52.054;5.294;2023-06-26T14:27:20;2.67;;;0.70;;
69985;SDS011;57328;52.054;5.294;2023-06-26T14:29:47;2.92;;;0.82;;
69985;SDS011;57328;52.054;5.294;2023-06-26T14:32:15;4.75;;;1.00;;
69985;SDS011;57328;52.054;5.294;2023-06-26T14:34:42;5.57;;;1.33;;
69985;SDS011;57328;52.054;5.294;2023-06-26T14:37:09;2.38;;;0.88;;
69985;SDS011;57328;52.054;5.294;2023-06-26T14:39:37;2.97;;;1.20;;
69985;SDS011;57328;52.054;5.294;2023-06-26T14:42:06;6.35;;;1.17;;
69985;SDS011;57328;52.054;5.294;2023-06-26T14:44:38;3.63;;;0.80;;
69985;SDS011;57328;52.054;5.294;2023-06-26T14:47:06;2.63;;;0.70;;
69985;SDS011;57328;52.054;5.294;2023-06-26T14:49:33;3.60;;;0.88;;
69985;SDS011;57328;52.054;5.294;2023-06-26T14:52:01;2.83;;;0.80;;
69985;SDS011;57328;52.054;5.294;2023-06-26T14:54:29;3.17;;;0.98;;
69985;SDS011;57328;52.054;5.294;2023-06-26T14:56:56;2.08;;;0.98;;
69985;SDS011;57328;52.054;5.294;2023-06-26T14:59:23;2.88;;;0.80;;
69985;SDS011;57328;52.054;5.294;2023-06-26T15:01:51;3.78;;;0.90;;
69985;SDS011;57328;52.054;5.294;2023-06-26T15:04:18;4.70;;;1.05;;
69985;SDS011;57328;52.054;5.294;2023-06-26T15:06:46;4.07;;;1.20;;
69985;SDS011;57328;52.054;5.294;2023-06-26T15:09:15;3.10;;;0.80;;
69985;SDS011;57328;52.054;5.294;2023-06-26T15:11:42;2.80;;;0.80;;
69985;SDS011;57328;52.054;5.294;2023-06-26T15:14:09;3.75;;;1.05;;
69985;SDS011;57328;52.054;5.294;2023-06-26T15:16:38;3.72;;;1.00;;
69985;SDS011;57328;52.054;5.294;2023-06-26T15:19:05;2.53;;;1.10;;
69985;SDS011;57328;52.054;5.294;2023-06-26T15:21:34;2.53;;;0.80;;
69985;SDS011;57328;52.054;5.294;2023-06-26T15:24:02;4.07;;;1.20;;
69985;SDS011;57328;52.054;5.294;2023-06-26T15:26:29;3.33;;;0.95;;
69985;SDS011;57328;52.054;5.294;2023-06-26T15:28:57;4.28;;;1.15;;
69985;SDS011;57328;52.054;5.294;2023-06-26T15:31:24;2.75;;;0.85;;
69985;SDS011;57328;52.054;5.294;2023-06-26T15:33:51;2.38;;;1.10;;
69985;SDS011;57328;52.054;5.294;2023-06-26T15:36:19;5.65;;;1.00;;
69985;SDS011;57328;52.054;5.294;2023-06-26T15:38:46;2.42;;;1.20;;
69985;SDS011;57328;52.054;5.294;2023-06-26T15:41:13;2.80;;;0.90;;
69985;SDS011;57328;52.054;5.294;2023-06-26T15:43:40;3.90;;;0.88;;
69985;SDS011;57328;52.054;5.294;2023-06-26T15:48:57;5.05;;;0.98;;